createdAt,value
2023-03-06T00:00:00.636Z,64.82
2023-03-06T00:02:28.588Z,64.59
2023-03-06T00:04:55.214Z,64.53
2023-03-06T00:07:22.574Z,64.32
2023-03-06T00:09:49.675Z,64.21
2023-03-06T00:12:16.417Z,64.13
2023-03-06T00:14:44.830Z,64.12
2023-03-06T00:17:11.410Z,64.26
2023-03-06T00:19:40.441Z,63.96
2023-03-06T00:22:07.661Z,64.21
2023-03-06T00:24:34.498Z,63.79
2023-03-06T00:27:01.116Z,63.83
2023-03-06T00:29:27.720Z,63.86
2023-03-06T00:31:54.332Z,63.83
2023-03-06T00:34:21.249Z,63.85
2023-03-06T00:36:49.960Z,63.90
2023-03-06T00:39:19.420Z,63.52
2023-03-06T00:41:48.926Z,63.43
2023-03-06T00:44:15.510Z,63.28
2023-03-06T00:46:42.078Z,63.35
2023-03-06T00:49:08.899Z,63.62
2023-03-06T00:51:36.131Z,63.87
2023-03-06T00:54:05.676Z,63.90
2023-03-06T00:56:32.623Z,64.28
2023-03-06T00:59:00.307Z,63.96
2023-03-06T01:01:27.191Z,64.45
2023-03-06T01:03:56.608Z,64.59
2023-03-06T01:06:23.710Z,64.46
2023-03-06T01:08:50.930Z,64.39
2023-03-06T01:11:19.659Z,64.37
2023-03-06T01:13:48.282Z,64.57
2023-03-06T01:16:16.800Z,65.39
2023-03-06T01:18:46.603Z,64.62
2023-03-06T01:21:14.123Z,64.51
2023-03-06T01:23:41.765Z,64.45
2023-03-06T01:26:08.563Z,64.51
2023-03-06T01:28:38.036Z,64.39
2023-03-06T01:31:05.710Z,64.17
2023-03-06T01:33:33.173Z,64.28
2023-03-06T01:36:00.087Z,63.99
2023-03-06T01:38:27.229Z,63.72
2023-03-06T01:40:53.915Z,63.99
2023-03-06T01:43:27.570Z,63.57
2023-03-06T01:46:28.836Z,63.62
2023-03-06T01:49:00.471Z,63.47
2023-03-06T01:51:31.987Z,63.80
2023-03-06T01:54:03.452Z,63.57
2023-03-06T01:56:30.449Z,63.53
2023-03-06T01:58:58.415Z,63.93
2023-03-06T02:01:26.726Z,64.01
2023-03-06T02:03:54.626Z,64.68
2023-03-06T02:06:21.219Z,64.37
2023-03-06T02:08:49.498Z,64.29
2023-03-06T02:11:19.112Z,64.72
2023-03-06T02:13:46.695Z,64.31
2023-03-06T02:16:14.820Z,64.38
2023-03-06T02:18:44.866Z,64.52
2023-03-06T02:21:15.804Z,64.73
2023-03-06T02:23:54.317Z,64.43
2023-03-06T02:26:23.804Z,64.81
2023-03-06T02:28:50.362Z,64.76
2023-03-06T02:31:22.407Z,64.74
2023-03-06T02:34:01.385Z,65.05
2023-03-06T02:36:29.681Z,65.58
2023-03-06T02:38:57.129Z,65.90
2023-03-06T02:41:25.686Z,65.55
2023-03-06T02:43:53.092Z,65.00
2023-03-06T02:46:19.705Z,64.61
2023-03-06T02:48:46.573Z,64.63
2023-03-06T02:51:13.242Z,64.83
2023-03-06T02:53:39.844Z,65.17
2023-03-06T02:56:07.184Z,64.93
2023-03-06T02:58:35.538Z,64.74
2023-03-06T03:01:02.163Z,64.61
2023-03-06T03:03:28.970Z,65.28
2023-03-06T03:05:55.862Z,65.37
2023-03-06T03:08:22.897Z,66.04
2023-03-06T03:10:49.519Z,65.64
2023-03-06T03:13:16.189Z,65.31
2023-03-06T03:15:44.414Z,66.00
2023-03-06T03:18:11.258Z,65.92
2023-03-06T03:20:42.064Z,65.47
2023-03-06T03:23:08.644Z,65.88
2023-03-06T03:25:35.393Z,66.08
2023-03-06T03:28:02.029Z,65.89
2023-03-06T03:30:28.602Z,66.47
2023-03-06T03:32:56.507Z,65.64
2023-03-06T03:35:23.289Z,66.18
2023-03-06T03:37:50.305Z,65.29
2023-03-06T03:40:17.191Z,65.24
2023-03-06T03:42:43.946Z,65.23
2023-03-06T03:45:11.552Z,65.39
2023-03-06T03:47:38.372Z,65.13
2023-03-06T03:50:07.452Z,65.10
2023-03-06T03:52:34.056Z,65.17
2023-03-06T03:55:00.929Z,65.20
2023-03-06T03:57:27.542Z,64.94
2023-03-06T03:59:54.140Z,64.86
2023-03-06T04:02:20.888Z,65.02
2023-03-06T04:04:47.562Z,65.08
2023-03-06T04:07:15.678Z,64.72
2023-03-06T04:09:42.273Z,64.70
2023-03-06T04:12:09.336Z,64.59
2023-03-06T04:14:35.939Z,64.65
2023-03-06T04:17:02.677Z,64.52
2023-03-06T04:19:29.242Z,64.66
2023-03-06T04:21:55.816Z,64.41
2023-03-06T04:24:23.772Z,64.35
2023-03-06T04:26:50.357Z,64.57
2023-03-06T04:29:16.929Z,64.36
2023-03-06T04:31:43.540Z,64.86
2023-03-06T04:34:10.248Z,64.65
2023-03-06T04:36:37.171Z,64.82
2023-03-06T04:39:04.316Z,65.16
2023-03-06T04:41:32.509Z,64.85
2023-03-06T04:43:59.238Z,64.81
2023-03-06T04:46:25.975Z,64.79
2023-03-06T04:48:52.622Z,64.96
2023-03-06T04:51:19.398Z,64.60
2023-03-06T04:53:46.065Z,64.51
2023-03-06T04:56:13.016Z,65.15
2023-03-06T04:58:42.583Z,64.90
2023-03-06T05:01:09.686Z,64.51
2023-03-06T05:03:36.345Z,64.52
2023-03-06T05:06:02.963Z,64.73
2023-03-06T05:08:29.886Z,64.98
2023-03-06T05:10:58.167Z,64.67
2023-03-06T05:13:25.660Z,64.75
2023-03-06T05:15:54.068Z,64.96
2023-03-06T05:18:20.992Z,65.10
2023-03-06T05:20:47.561Z,65.19
2023-03-06T05:23:14.372Z,65.23
2023-03-06T05:25:40.964Z,65.53
2023-03-06T05:28:08.212Z,64.88
2023-03-06T05:30:35.668Z,64.96
2023-03-06T05:33:03.777Z,65.04
2023-03-06T05:35:30.498Z,64.93
2023-03-06T05:37:57.081Z,64.80
2023-03-06T05:40:23.767Z,64.85
2023-03-06T05:42:50.494Z,64.41
2023-03-06T05:45:17.298Z,64.66
2023-03-06T05:47:44.153Z,64.91
2023-03-06T05:50:12.988Z,64.40
2023-03-06T05:52:39.714Z,64.30
2023-03-06T05:55:07.724Z,64.39
2023-03-06T05:57:45.945Z,64.35
2023-03-06T06:00:14.311Z,64.17
2023-03-06T06:02:41.494Z,64.57
2023-03-06T06:05:10.257Z,64.58
2023-03-06T06:07:39.502Z,64.79
2023-03-06T06:10:07.475Z,64.85
2023-03-06T06:15:17.742Z,65.00
2023-03-06T06:17:44.341Z,64.91
2023-03-06T06:20:12.024Z,64.50
2023-03-06T06:22:39.986Z,64.61
2023-03-06T06:25:07.912Z,64.65
2023-03-06T06:27:34.502Z,64.60
2023-03-06T06:30:01.106Z,64.23
2023-03-06T06:32:27.666Z,64.41
2023-03-06T06:34:54.782Z,64.29
2023-03-06T06:37:21.629Z,63.88
2023-03-06T06:39:49.539Z,63.74
2023-03-06T06:42:31.009Z,63.66
2023-03-06T06:44:59.733Z,64.11
2023-03-06T06:47:26.466Z,63.61
2023-03-06T06:49:54.957Z,63.30
2023-03-06T06:52:22.218Z,63.21
2023-03-06T06:54:50.148Z,63.43
2023-03-06T06:57:17.383Z,63.14
2023-03-06T06:59:44.000Z,63.24
2023-03-06T07:02:14.614Z,62.85
2023-03-06T07:04:56.101Z,63.17
2023-03-06T07:07:27.548Z,63.47
2023-03-06T07:09:58.995Z,63.16
2023-03-06T07:12:25.759Z,63.04
2023-03-06T07:14:52.307Z,62.89
2023-03-06T07:17:18.944Z,62.46
2023-03-06T07:19:45.711Z,62.27
2023-03-06T07:22:12.552Z,62.10
2023-03-06T07:24:39.125Z,61.90
2023-03-06T07:27:07.190Z,61.95
2023-03-06T07:29:33.908Z,61.50
2023-03-06T07:32:00.629Z,61.51
2023-03-06T07:34:27.250Z,61.61
2023-03-06T07:36:53.994Z,61.53
2023-03-06T07:39:20.599Z,61.17
2023-03-06T07:41:50.091Z,61.22
2023-03-06T07:44:18.121Z,61.06
2023-03-06T07:46:44.720Z,61.20
2023-03-06T07:49:11.333Z,61.05
2023-03-06T07:51:37.903Z,61.07
2023-03-06T07:54:04.528Z,60.85
2023-03-06T07:56:30.951Z,60.40
2023-03-06T07:58:57.677Z,60.40
2023-03-06T08:01:26.012Z,60.01
2023-03-06T08:03:53.042Z,59.69
2023-03-06T08:06:23.058Z,59.59
2023-03-06T08:08:50.673Z,59.63
2023-03-06T08:11:19.448Z,59.62
2023-03-06T08:13:46.509Z,59.49
2023-03-06T08:16:13.121Z,59.78
2023-03-06T08:18:41.453Z,59.19
2023-03-06T08:21:09.917Z,59.71
2023-03-06T08:23:37.107Z,59.18
2023-03-06T08:26:05.593Z,59.05
2023-03-06T08:28:32.676Z,58.26
2023-03-06T08:31:06.914Z,57.39
2023-03-06T08:33:33.582Z,57.17
2023-03-06T08:36:02.464Z,56.53
2023-03-06T08:38:29.211Z,56.14
2023-03-06T08:40:55.947Z,55.63
2023-03-06T08:43:22.606Z,55.20
2023-03-06T08:45:52.059Z,54.81
2023-03-06T08:48:18.716Z,54.91
2023-03-06T08:50:45.335Z,55.31
2023-03-06T08:53:13.589Z,55.20
2023-03-06T08:55:40.254Z,55.19
2023-03-06T08:58:06.976Z,54.92
2023-03-06T09:00:34.046Z,55.84
2023-03-06T09:03:00.849Z,55.55
2023-03-06T09:05:27.432Z,55.28
2023-03-06T09:07:54.129Z,55.81
2023-03-06T09:10:24.596Z,55.55
2023-03-06T09:12:54.423Z,55.53
2023-03-06T09:15:22.865Z,56.07
2023-03-06T09:17:49.632Z,56.19
2023-03-06T09:20:16.976Z,56.95
2023-03-06T09:22:43.751Z,56.74
2023-03-06T09:25:10.559Z,56.79
2023-03-06T09:27:38.613Z,57.19
2023-03-06T09:30:07.103Z,57.65
2023-03-06T09:32:33.687Z,58.83
2023-03-06T09:35:00.862Z,58.95
2023-03-06T09:37:27.454Z,60.28
2023-03-06T09:39:54.025Z,60.77
2023-03-06T09:42:22.068Z,60.01
2023-03-06T09:44:54.114Z,60.08
2023-03-06T09:47:40.741Z,59.17
2023-03-06T09:50:34.631Z,57.99
2023-03-06T09:53:31.070Z,56.63
2023-03-06T09:56:02.425Z,56.92
2023-03-06T09:58:34.214Z,56.75
2023-03-06T10:01:06.613Z,57.05
2023-03-06T10:03:39.522Z,57.45
2023-03-06T10:06:12.935Z,58.09
2023-03-06T10:08:49.005Z,58.23
2023-03-06T10:11:22.349Z,58.57
2023-03-06T10:13:53.904Z,58.55
2023-03-06T10:16:27.589Z,60.26
2023-03-06T10:18:59.487Z,59.83
2023-03-06T10:21:39.014Z,59.65
2023-03-06T10:24:20.124Z,59.55
2023-03-06T10:26:52.141Z,58.67
2023-03-06T10:29:39.215Z,57.28
2023-03-06T10:32:14.172Z,56.36
2023-03-06T10:34:42.410Z,55.50
2023-03-06T10:37:18.457Z,54.46
2023-03-06T10:39:45.182Z,54.14
2023-03-06T10:42:11.906Z,53.08
2023-03-06T10:44:39.122Z,52.20
2023-03-06T10:47:35.672Z,51.19
2023-03-06T10:50:06.665Z,51.12
2023-03-06T10:52:35.616Z,50.69
2023-03-06T10:55:33.055Z,52.29
2023-03-06T10:58:17.348Z,50.77
2023-03-06T11:00:44.043Z,51.51
2023-03-06T11:03:29.882Z,52.34
2023-03-06T11:06:07.603Z,52.29
2023-03-06T11:08:40.060Z,52.14
2023-03-06T11:11:10.841Z,52.60
2023-03-06T11:13:46.035Z,53.95
2023-03-06T11:16:29.183Z,55.48
2023-03-06T11:19:20.942Z,56.91
2023-03-06T11:22:07.297Z,56.33
2023-03-06T11:24:52.116Z,57.16
2023-03-06T11:27:25.433Z,56.98
2023-03-06T11:30:01.845Z,55.69
2023-03-06T11:32:40.496Z,56.49
2023-03-06T11:35:23.100Z,56.12
2023-03-06T11:38:05.307Z,56.42
2023-03-06T11:40:56.615Z,56.26
2023-03-06T11:43:38.316Z,56.05
2023-03-06T11:46:24.439Z,54.66
2023-03-06T11:48:58.551Z,54.44
2023-03-06T11:51:36.571Z,54.49
2023-03-06T11:58:19.673Z,52.65
2023-03-06T12:01:45.457Z,52.10
2023-03-06T12:08:47.543Z,51.57
2023-03-06T12:18:48.672Z,50.42
2023-03-06T12:21:49.318Z,50.49
2023-03-06T12:24:40.047Z,49.27
2023-03-06T12:27:15.369Z,48.51
2023-03-06T12:29:57.972Z,49.07
2023-03-06T12:32:39.892Z,47.62
2023-03-06T12:35:23.762Z,47.79
2023-03-06T12:38:07.422Z,47.07
2023-03-06T13:14:00.437Z,46.98
2023-03-06T13:16:43.982Z,47.69
2023-03-06T13:19:20.359Z,47.96
2023-03-06T13:23:06.709Z,47.88
2023-03-06T13:26:16.807Z,47.41
2023-03-06T13:28:46.470Z,46.86
2023-03-06T13:31:26.474Z,46.96
2023-03-06T13:34:05.044Z,47.11
2023-03-06T13:36:34.746Z,48.28
2023-03-06T13:39:05.532Z,47.61
2023-03-06T13:42:04.474Z,46.69
2023-03-06T13:44:56.434Z,46.76
2023-03-06T13:48:41.582Z,47.88
2023-03-06T13:50:57.736Z,47.86
2023-03-06T13:54:09.948Z,47.21
2023-03-06T14:00:55.598Z,47.87
2023-03-06T14:04:05.889Z,47.79
2023-03-06T14:06:53.085Z,48.67
2023-03-06T14:09:26.780Z,48.03
2023-03-06T14:11:57.363Z,48.41
2023-03-06T14:14:32.323Z,47.90
2023-03-06T14:17:05.767Z,48.08
2023-03-06T14:19:37.911Z,47.61
2023-03-06T14:22:27.906Z,47.51
2023-03-06T14:24:59.376Z,47.62
2023-03-06T14:27:41.559Z,48.23
2023-03-06T14:30:12.513Z,47.32
2023-03-06T14:32:40.405Z,47.87
2023-03-06T14:35:20.744Z,49.38
2023-03-06T14:37:49.178Z,50.01
2023-03-06T14:40:18.942Z,50.28
2023-03-06T14:42:45.574Z,51.78
2023-03-06T14:45:16.654Z,51.64
2023-03-06T14:47:44.128Z,51.31
2023-03-06T14:50:24.021Z,51.68
2023-03-06T14:52:54.184Z,50.61
2023-03-06T14:55:59.777Z,50.75
2023-03-06T14:58:31.431Z,50.97
2023-03-06T15:03:58.241Z,51.17
2023-03-06T15:42:06.083Z,50.79
2023-03-06T17:02:41.729Z,56.11
2023-03-06T18:14:39.095Z,57.28
2023-03-06T18:17:05.918Z,57.32
2023-03-06T18:19:35.033Z,57.32
2023-03-06T18:22:01.627Z,57.41
2023-03-06T18:24:37.308Z,57.52
2023-03-06T18:27:04.065Z,57.10
2023-03-06T18:29:30.743Z,56.47
2023-03-06T18:31:58.903Z,56.77
2023-03-06T18:34:28.170Z,57.00
2023-03-06T18:36:54.910Z,57.02
2023-03-06T18:39:21.626Z,56.70
2023-03-06T18:41:50.141Z,56.47
2023-03-06T18:44:18.188Z,56.48
2023-03-06T18:46:45.256Z,56.83
2023-03-06T18:49:14.048Z,56.43
2023-03-06T18:51:41.330Z,55.91
2023-03-06T18:54:08.445Z,55.87
2023-03-06T18:56:35.093Z,55.66
2023-03-06T18:59:02.640Z,55.40
2023-03-06T19:01:29.452Z,55.80
2023-03-06T19:03:56.152Z,54.99
2023-03-06T19:06:24.584Z,55.44
2023-03-06T19:08:52.070Z,55.41
2023-03-06T19:11:18.632Z,55.21
2023-03-06T19:13:45.406Z,54.69
2023-03-06T19:16:17.326Z,55.42
2023-03-06T19:18:47.358Z,54.52
2023-03-06T19:21:19.531Z,54.57
2023-03-06T19:23:47.640Z,54.54
2023-03-06T19:26:15.010Z,54.43
2023-03-06T19:28:42.746Z,54.56
2023-03-06T19:31:29.606Z,54.68
2023-03-06T19:35:27.477Z,54.28
2023-03-06T19:57:33.428Z,54.76
2023-03-06T20:00:00.117Z,54.43
2023-03-06T20:02:26.795Z,54.99
2023-03-06T20:04:53.737Z,53.96
2023-03-06T20:07:21.915Z,54.20
2023-03-06T20:09:48.597Z,54.10
2023-03-06T20:12:15.894Z,54.48
2023-03-06T20:14:42.717Z,54.09
2023-03-06T20:17:09.278Z,53.83
2023-03-06T20:19:36.760Z,53.85
2023-03-06T20:22:03.810Z,53.38
2023-03-06T20:24:31.731Z,53.70
2023-03-06T20:26:58.487Z,54.15
2023-03-06T20:29:26.662Z,54.11
2023-03-06T20:31:56.213Z,54.34
2023-03-06T20:34:23.835Z,54.67
2023-03-06T20:36:50.648Z,54.80
2023-03-06T20:39:22.085Z,54.20
2023-03-06T20:41:50.192Z,53.42
2023-03-06T20:44:19.528Z,53.69
2023-03-06T20:46:46.367Z,53.65
2023-03-06T20:49:13.417Z,54.52
2023-03-06T20:51:41.113Z,54.35
2023-03-06T20:54:09.773Z,54.57
2023-03-06T20:56:37.374Z,54.48
2023-03-06T20:59:05.975Z,54.78
2023-03-06T21:01:34.883Z,54.80
2023-03-06T21:04:03.021Z,54.84
2023-03-06T21:06:30.523Z,55.44
2023-03-06T21:08:58.444Z,55.23
2023-03-06T21:11:25.630Z,54.73
2023-03-06T21:13:55.436Z,53.84
2023-03-06T21:16:25.586Z,54.42
2023-03-06T21:18:54.348Z,54.31
2023-03-06T21:21:23.207Z,54.34
2023-03-06T21:23:50.619Z,54.98
2023-03-06T21:26:19.313Z,54.80
2023-03-06T21:28:46.547Z,55.77
2023-03-06T21:31:15.655Z,56.22
2023-03-06T21:33:44.715Z,56.48
2023-03-06T21:36:14.659Z,56.87
2023-03-06T21:38:41.577Z,57.71
2023-03-06T21:41:14.474Z,59.83
2023-03-06T21:43:41.714Z,60.72
2023-03-06T21:46:08.766Z,60.95
2023-03-06T21:48:35.842Z,62.63
2023-03-06T21:51:14.548Z,63.84
2023-03-06T21:53:42.195Z,64.61
2023-03-06T21:56:09.398Z,64.57
2023-03-06T21:58:38.957Z,64.71
2023-03-06T22:01:08.995Z,65.96
2023-03-06T22:03:35.611Z,65.82
2023-03-06T22:06:10.860Z,65.99
2023-03-06T22:08:38.844Z,66.49
2023-03-06T22:11:06.996Z,66.30
2023-03-06T22:13:35.935Z,66.16
2023-03-06T22:16:02.943Z,66.21
2023-03-06T22:18:29.543Z,66.01
2023-03-06T22:20:56.245Z,66.66
2023-03-06T22:23:23.032Z,66.67
2023-03-06T22:25:50.962Z,66.12
2023-03-06T22:28:18.580Z,65.82
2023-03-06T22:30:45.314Z,66.20
2023-03-06T22:33:12.032Z,66.11
2023-03-06T22:35:38.682Z,66.31
2023-03-06T22:38:05.349Z,66.37
2023-03-06T22:40:33.134Z,66.12
2023-03-06T22:43:01.198Z,66.47
2023-03-06T22:45:28.326Z,66.37
2023-03-06T22:48:02.349Z,66.37
2023-03-06T22:50:36.952Z,66.47
2023-03-06T22:53:03.741Z,66.08
2023-03-06T22:55:30.996Z,65.95
2023-03-06T22:57:57.590Z,66.28
2023-03-06T23:00:25.533Z,66.15
2023-03-06T23:02:52.176Z,67.28
2023-03-06T23:05:21.710Z,67.81
2023-03-06T23:07:48.444Z,68.48
2023-03-06T23:10:17.418Z,68.73
2023-03-06T23:12:44.073Z,69.02
2023-03-06T23:15:13.360Z,68.50
2023-03-06T23:17:41.938Z,68.66
2023-03-06T23:20:10.193Z,69.35
2023-03-06T23:22:36.841Z,70.31
2023-03-06T23:25:03.568Z,69.97
2023-03-06T23:27:30.233Z,68.89
2023-03-06T23:29:56.819Z,69.12
2023-03-06T23:32:23.722Z,69.22
2023-03-06T23:34:54.286Z,69.55
2023-03-06T23:37:20.997Z,69.97
2023-03-06T23:39:47.646Z,69.87
2023-03-06T23:42:14.443Z,69.19
2023-03-06T23:44:41.076Z,70.09
2023-03-06T23:47:07.700Z,70.06
2023-03-06T23:49:34.584Z,70.98
2023-03-06T23:52:03.177Z,70.76
2023-03-06T23:54:31.411Z,70.67
2023-03-06T23:56:58.187Z,69.77
2023-03-06T23:59:24.795Z,70.63
